<?xml version="1.0" encoding="UTF-8" standalone="no" ?>
<gpx xmlns="http://www.topografix.com/GPX/1/1" xmlns:xsi="http://www.w3.org/2001/XMLSchema-instance" xsi:schemaLocation="http://www.topografix.com/GPX/1/1 http://www.topografix.com/GPX/1/1/gpx.xsd" version="1.1" creator="VisuGPX - https://www.visugpx.com">
  <metadata>
    <name>Suchet 51</name>
  </metadata>
  <trk>
    <name><![CDATA[Suchet 51]]></name>
    <trkseg>
      <trkpt lat="46.76945" lon="6.49822">
        <ele>704.59997558594</ele>
        <time>2019-10-19T13:33:46.000Z</time>
      </trkpt>
      <trkpt lat="46.7694" lon="6.49819">
        <ele>704.59997558594</ele>
        <time>2019-10-19T13:33:53.000Z</time>
      </trkpt>
      <trkpt lat="46.76921" lon="6.49747">
        <ele>708.20001220703</ele>
        <time>2019-10-19T13:34:16.000Z</time>
      </trkpt>
      <trkpt lat="46.7688" lon="6.49697">
        <ele>711</ele>
        <time>2019-10-19T13:34:42.000Z</time>
      </trkpt>
      <trkpt lat="46.76842" lon="6.4964">
        <ele>714.20001220703</ele>
        <time>2019-10-19T13:35:11.000Z</time>
      </trkpt>
      <trkpt lat="46.76804" lon="6.49583">
        <ele>717.79998779297</ele>
        <time>2019-10-19T13:35:39.000Z</time>
      </trkpt>
      <trkpt lat="46.76762" lon="6.49531">
        <ele>722.79998779297</ele>
        <time>2019-10-19T13:36:07.000Z</time>
      </trkpt>
      <trkpt lat="46.76723" lon="6.49475">
        <ele>729.40002441406</ele>
        <time>2019-10-19T13:36:37.000Z</time>
      </trkpt>
      <trkpt lat="46.76693" lon="6.49409">
        <ele>737.20001220703</ele>
        <time>2019-10-19T13:37:05.000Z</time>
      </trkpt>
      <trkpt lat="46.76656" lon="6.49351">
        <ele>744.59997558594</ele>
        <time>2019-10-19T13:37:32.000Z</time>
      </trkpt>
      <trkpt lat="46.76617" lon="6.49295">
        <ele>749</ele>
        <time>2019-10-19T13:37:59.000Z</time>
      </trkpt>
      <trkpt lat="46.76582" lon="6.49237">
        <ele>752.79998779297</ele>
        <time>2019-10-19T13:38:26.000Z</time>
      </trkpt>
      <trkpt lat="46.76557" lon="6.49168">
        <ele>761.20001220703</ele>
        <time>2019-10-19T13:38:52.000Z</time>
      </trkpt>
      <trkpt lat="46.76535" lon="6.49103">
        <ele>766.59997558594</ele>
        <time>2019-10-19T13:39:19.000Z</time>
      </trkpt>
      <trkpt lat="46.76543" lon="6.49026">
        <ele>782.40002441406</ele>
        <time>2019-10-19T13:39:43.000Z</time>
      </trkpt>
      <trkpt lat="46.76492" lon="6.49007">
        <ele>773.59997558594</ele>
        <time>2019-10-19T13:40:05.000Z</time>
      </trkpt>
      <trkpt lat="46.7649" lon="6.49001">
        <ele>774.20001220703</ele>
        <time>2019-10-19T13:40:07.000Z</time>
      </trkpt>
      <trkpt lat="46.76534" lon="6.4898">
        <ele>787.79998779297</ele>
        <time>2019-10-19T13:40:32.000Z</time>
      </trkpt>
      <trkpt lat="46.76576" lon="6.49024">
        <ele>789.79998779297</ele>
        <time>2019-10-19T13:40:55.000Z</time>
      </trkpt>
      <trkpt lat="46.76585" lon="6.49035">
        <ele>790.20001220703</ele>
        <time>2019-10-19T13:41:00.000Z</time>
      </trkpt>
      <trkpt lat="46.76634" lon="6.49068">
        <ele>796.20001220703</ele>
        <time>2019-10-19T13:41:24.000Z</time>
      </trkpt>
      <trkpt lat="46.76681" lon="6.49071">
        <ele>807.59997558594</ele>
        <time>2019-10-19T13:41:52.000Z</time>
      </trkpt>
      <trkpt lat="46.76735" lon="6.4909">
        <ele>819</ele>
        <time>2019-10-19T13:42:19.000Z</time>
      </trkpt>
      <trkpt lat="46.76773" lon="6.49146">
        <ele>816.79998779297</ele>
        <time>2019-10-19T13:42:45.000Z</time>
      </trkpt>
      <trkpt lat="46.76822" lon="6.49177">
        <ele>816.79998779297</ele>
        <time>2019-10-19T13:43:10.000Z</time>
      </trkpt>
      <trkpt lat="46.76874" lon="6.49206">
        <ele>812.79998779297</ele>
        <time>2019-10-19T13:43:38.000Z</time>
      </trkpt>
      <trkpt lat="46.76929" lon="6.49215">
        <ele>815.59997558594</ele>
        <time>2019-10-19T13:44:04.000Z</time>
      </trkpt>
      <trkpt lat="46.76984" lon="6.49215">
        <ele>823</ele>
        <time>2019-10-19T13:44:32.000Z</time>
      </trkpt>
      <trkpt lat="46.77038" lon="6.49222">
        <ele>826.79998779297</ele>
        <time>2019-10-19T13:44:55.000Z</time>
      </trkpt>
      <trkpt lat="46.77082" lon="6.49182">
        <ele>839.79998779297</ele>
        <time>2019-10-19T13:45:21.000Z</time>
      </trkpt>
      <trkpt lat="46.77129" lon="6.49137">
        <ele>850.20001220703</ele>
        <time>2019-10-19T13:45:43.000Z</time>
      </trkpt>
      <trkpt lat="46.77178" lon="6.49101">
        <ele>858.40002441406</ele>
        <time>2019-10-19T13:46:07.000Z</time>
      </trkpt>
      <trkpt lat="46.77223" lon="6.49054">
        <ele>866.20001220703</ele>
        <time>2019-10-19T13:46:33.000Z</time>
      </trkpt>
      <trkpt lat="46.77175" lon="6.49063">
        <ele>864.59997558594</ele>
        <time>2019-10-19T13:47:01.000Z</time>
      </trkpt>
      <trkpt lat="46.77119" lon="6.49063">
        <ele>866.59997558594</ele>
        <time>2019-10-19T13:47:25.000Z</time>
      </trkpt>
      <trkpt lat="46.77109" lon="6.49061">
        <ele>867.59997558594</ele>
        <time>2019-10-19T13:51:33.000Z</time>
      </trkpt>
      <trkpt lat="46.77106" lon="6.49059">
        <ele>868</ele>
        <time>2019-10-19T13:51:36.000Z</time>
      </trkpt>
      <trkpt lat="46.77065" lon="6.49058">
        <ele>869.79998779297</ele>
        <time>2019-10-19T13:51:58.000Z</time>
      </trkpt>
      <trkpt lat="46.77012" lon="6.4904">
        <ele>870</ele>
        <time>2019-10-19T13:52:21.000Z</time>
      </trkpt>
      <trkpt lat="46.7696" lon="6.49004">
        <ele>875.59997558594</ele>
        <time>2019-10-19T13:52:47.000Z</time>
      </trkpt>
      <trkpt lat="46.76916" lon="6.48957">
        <ele>884.59997558594</ele>
        <time>2019-10-19T13:53:14.000Z</time>
      </trkpt>
      <trkpt lat="46.76882" lon="6.48894">
        <ele>895</ele>
        <time>2019-10-19T13:53:41.000Z</time>
      </trkpt>
      <trkpt lat="46.76843" lon="6.48841">
        <ele>900.20001220703</ele>
        <time>2019-10-19T13:54:07.000Z</time>
      </trkpt>
      <trkpt lat="46.76799" lon="6.4879">
        <ele>905</ele>
        <time>2019-10-19T13:54:33.000Z</time>
      </trkpt>
      <trkpt lat="46.76754" lon="6.48747">
        <ele>906.59997558594</ele>
        <time>2019-10-19T13:54:58.000Z</time>
      </trkpt>
      <trkpt lat="46.76711" lon="6.48697">
        <ele>909</ele>
        <time>2019-10-19T13:55:23.000Z</time>
      </trkpt>
      <trkpt lat="46.76691" lon="6.48622">
        <ele>924</ele>
        <time>2019-10-19T13:55:49.000Z</time>
      </trkpt>
      <trkpt lat="46.76653" lon="6.48572">
        <ele>925.20001220703</ele>
        <time>2019-10-19T13:56:16.000Z</time>
      </trkpt>
      <trkpt lat="46.76606" lon="6.48528">
        <ele>929.59997558594</ele>
        <time>2019-10-19T13:56:42.000Z</time>
      </trkpt>
      <trkpt lat="46.76561" lon="6.48487">
        <ele>934.20001220703</ele>
        <time>2019-10-19T13:57:04.000Z</time>
      </trkpt>
      <trkpt lat="46.76568" lon="6.48478">
        <ele>938.40002441406</ele>
        <time>2019-10-19T13:57:09.000Z</time>
      </trkpt>
      <trkpt lat="46.76621" lon="6.485">
        <ele>940.59997558594</ele>
        <time>2019-10-19T13:57:40.000Z</time>
      </trkpt>
      <trkpt lat="46.76675" lon="6.48503">
        <ele>951</ele>
        <time>2019-10-19T13:58:08.000Z</time>
      </trkpt>
      <trkpt lat="46.76723" lon="6.48529">
        <ele>957</ele>
        <time>2019-10-19T13:58:35.000Z</time>
      </trkpt>
      <trkpt lat="46.76768" lon="6.48569">
        <ele>960.79998779297</ele>
        <time>2019-10-19T13:59:04.000Z</time>
      </trkpt>
      <trkpt lat="46.76773" lon="6.48572">
        <ele>961.79998779297</ele>
        <time>2019-10-19T13:59:07.000Z</time>
      </trkpt>
      <trkpt lat="46.76825" lon="6.48597">
        <ele>972</ele>
        <time>2019-10-19T13:59:37.000Z</time>
      </trkpt>
      <trkpt lat="46.76876" lon="6.48628">
        <ele>975.20001220703</ele>
        <time>2019-10-19T14:00:05.000Z</time>
      </trkpt>
      <trkpt lat="46.76922" lon="6.48667">
        <ele>972</ele>
        <time>2019-10-19T14:00:33.000Z</time>
      </trkpt>
      <trkpt lat="46.76972" lon="6.48639">
        <ele>982.59997558594</ele>
        <time>2019-10-19T14:01:02.000Z</time>
      </trkpt>
      <trkpt lat="46.77024" lon="6.48621">
        <ele>987</ele>
        <time>2019-10-19T14:01:29.000Z</time>
      </trkpt>
      <trkpt lat="46.77076" lon="6.48597">
        <ele>995</ele>
        <time>2019-10-19T14:02:00.000Z</time>
      </trkpt>
      <trkpt lat="46.77126" lon="6.48565">
        <ele>1006</ele>
        <time>2019-10-19T14:02:30.000Z</time>
      </trkpt>
      <trkpt lat="46.7718" lon="6.4856">
        <ele>1009.799987793</ele>
        <time>2019-10-19T14:02:58.000Z</time>
      </trkpt>
      <trkpt lat="46.77195" lon="6.48556">
        <ele>1013</ele>
        <time>2019-10-19T14:03:08.000Z</time>
      </trkpt>
      <trkpt lat="46.77191" lon="6.48532">
        <ele>1021</ele>
        <time>2019-10-19T14:03:19.000Z</time>
      </trkpt>
      <trkpt lat="46.77137" lon="6.48515">
        <ele>1022.5999755859</ele>
        <time>2019-10-19T14:03:51.000Z</time>
      </trkpt>
      <trkpt lat="46.77083" lon="6.485">
        <ele>1027.5999755859</ele>
        <time>2019-10-19T14:04:20.000Z</time>
      </trkpt>
      <trkpt lat="46.77033" lon="6.48466">
        <ele>1033.5999755859</ele>
        <time>2019-10-19T14:04:52.000Z</time>
      </trkpt>
      <trkpt lat="46.76983" lon="6.48434">
        <ele>1037.4000244141</ele>
        <time>2019-10-19T14:05:22.000Z</time>
      </trkpt>
      <trkpt lat="46.7693" lon="6.48414">
        <ele>1043.8000488281</ele>
        <time>2019-10-19T14:05:52.000Z</time>
      </trkpt>
      <trkpt lat="46.76883" lon="6.48372">
        <ele>1051.1999511719</ele>
        <time>2019-10-19T14:06:22.000Z</time>
      </trkpt>
      <trkpt lat="46.7685" lon="6.48309">
        <ele>1061.8000488281</ele>
        <time>2019-10-19T14:06:54.000Z</time>
      </trkpt>
      <trkpt lat="46.76829" lon="6.48262">
        <ele>1072.4000244141</ele>
        <time>2019-10-19T14:07:15.000Z</time>
      </trkpt>
      <trkpt lat="46.76801" lon="6.48195">
        <ele>1084.1999511719</ele>
        <time>2019-10-19T14:07:46.000Z</time>
      </trkpt>
      <trkpt lat="46.76762" lon="6.48138">
        <ele>1088.8000488281</ele>
        <time>2019-10-19T14:08:17.000Z</time>
      </trkpt>
      <trkpt lat="46.76715" lon="6.48099">
        <ele>1089</ele>
        <time>2019-10-19T14:08:50.000Z</time>
      </trkpt>
      <trkpt lat="46.76662" lon="6.48082">
        <ele>1084.1999511719</ele>
        <time>2019-10-19T14:09:16.000Z</time>
      </trkpt>
      <trkpt lat="46.76607" lon="6.48088">
        <ele>1081.4000244141</ele>
        <time>2019-10-19T14:09:43.000Z</time>
      </trkpt>
      <trkpt lat="46.76554" lon="6.48068">
        <ele>1087.1999511719</ele>
        <time>2019-10-19T14:10:11.000Z</time>
      </trkpt>
      <trkpt lat="46.76507" lon="6.48031">
        <ele>1095.8000488281</ele>
        <time>2019-10-19T14:10:41.000Z</time>
      </trkpt>
      <trkpt lat="46.76469" lon="6.47972">
        <ele>1105.8000488281</ele>
        <time>2019-10-19T14:11:11.000Z</time>
      </trkpt>
      <trkpt lat="46.76434" lon="6.47911">
        <ele>1113.4000244141</ele>
        <time>2019-10-19T14:11:39.000Z</time>
      </trkpt>
      <trkpt lat="46.76394" lon="6.47855">
        <ele>1118.4000244141</ele>
        <time>2019-10-19T14:12:09.000Z</time>
      </trkpt>
      <trkpt lat="46.76364" lon="6.4779">
        <ele>1123.5999755859</ele>
        <time>2019-10-19T14:12:39.000Z</time>
      </trkpt>
      <trkpt lat="46.76334" lon="6.47725">
        <ele>1131</ele>
        <time>2019-10-19T14:13:09.000Z</time>
      </trkpt>
      <trkpt lat="46.76308" lon="6.47656">
        <ele>1137.1999511719</ele>
        <time>2019-10-19T14:13:38.000Z</time>
      </trkpt>
      <trkpt lat="46.76278" lon="6.47588">
        <ele>1144.4000244141</ele>
        <time>2019-10-19T14:14:07.000Z</time>
      </trkpt>
      <trkpt lat="46.76242" lon="6.47525">
        <ele>1148.8000488281</ele>
        <time>2019-10-19T14:14:35.000Z</time>
      </trkpt>
      <trkpt lat="46.76211" lon="6.47458">
        <ele>1154</ele>
        <time>2019-10-19T14:15:05.000Z</time>
      </trkpt>
      <trkpt lat="46.76203" lon="6.47429">
        <ele>1155.5999755859</ele>
        <time>2019-10-19T14:15:15.000Z</time>
      </trkpt>
      <trkpt lat="46.76203" lon="6.47425">
        <ele>1155.8000488281</ele>
        <time>2019-10-19T14:15:18.000Z</time>
      </trkpt>
      <trkpt lat="46.76201" lon="6.47418">
        <ele>1156.4000244141</ele>
        <time>2019-10-19T14:15:20.000Z</time>
      </trkpt>
      <trkpt lat="46.76174" lon="6.47351">
        <ele>1163.1999511719</ele>
        <time>2019-10-19T14:15:47.000Z</time>
      </trkpt>
      <trkpt lat="46.76174" lon="6.47335">
        <ele>1166.5999755859</ele>
        <time>2019-10-19T14:15:53.000Z</time>
      </trkpt>
      <trkpt lat="46.76183" lon="6.47333">
        <ele>1167.8000488281</ele>
        <time>2019-10-19T14:15:58.000Z</time>
      </trkpt>
      <trkpt lat="46.76231" lon="6.47372">
        <ele>1167.8000488281</ele>
        <time>2019-10-19T14:16:27.000Z</time>
      </trkpt>
      <trkpt lat="46.76282" lon="6.47399">
        <ele>1171.4000244141</ele>
        <time>2019-10-19T14:16:58.000Z</time>
      </trkpt>
      <trkpt lat="46.76335" lon="6.4738">
        <ele>1180.8000488281</ele>
        <time>2019-10-19T14:17:28.000Z</time>
      </trkpt>
      <trkpt lat="46.76389" lon="6.47362">
        <ele>1189</ele>
        <time>2019-10-19T14:17:57.000Z</time>
      </trkpt>
      <trkpt lat="46.76439" lon="6.47328">
        <ele>1196.5999755859</ele>
        <time>2019-10-19T14:18:26.000Z</time>
      </trkpt>
      <trkpt lat="46.76492" lon="6.47322">
        <ele>1202</ele>
        <time>2019-10-19T14:18:54.000Z</time>
      </trkpt>
      <trkpt lat="46.76546" lon="6.47336">
        <ele>1213.5999755859</ele>
        <time>2019-10-19T14:19:22.000Z</time>
      </trkpt>
      <trkpt lat="46.76579" lon="6.47365">
        <ele>1216</ele>
        <time>2019-10-19T14:19:41.000Z</time>
      </trkpt>
      <trkpt lat="46.76557" lon="6.47305">
        <ele>1223.8000488281</ele>
        <time>2019-10-19T14:20:10.000Z</time>
      </trkpt>
      <trkpt lat="46.76532" lon="6.47233">
        <ele>1229.8000488281</ele>
        <time>2019-10-19T14:20:39.000Z</time>
      </trkpt>
      <trkpt lat="46.76506" lon="6.47163">
        <ele>1233.8000488281</ele>
        <time>2019-10-19T14:21:08.000Z</time>
      </trkpt>
      <trkpt lat="46.76479" lon="6.47094">
        <ele>1237.5999755859</ele>
        <time>2019-10-19T14:21:36.000Z</time>
      </trkpt>
      <trkpt lat="46.76491" lon="6.47064">
        <ele>1247</ele>
        <time>2019-10-19T14:22:01.000Z</time>
      </trkpt>
      <trkpt lat="46.76531" lon="6.47118">
        <ele>1252</ele>
        <time>2019-10-19T14:22:27.000Z</time>
      </trkpt>
      <trkpt lat="46.7656" lon="6.47146">
        <ele>1257.5999755859</ele>
        <time>2019-10-19T14:22:45.000Z</time>
      </trkpt>
      <trkpt lat="46.7658" lon="6.47166">
        <ele>1261.5999755859</ele>
        <time>2019-10-19T14:22:58.000Z</time>
      </trkpt>
      <trkpt lat="46.76625" lon="6.4721">
        <ele>1272.5999755859</ele>
        <time>2019-10-19T14:23:27.000Z</time>
      </trkpt>
      <trkpt lat="46.76662" lon="6.4727">
        <ele>1275.4000244141</ele>
        <time>2019-10-19T14:23:56.000Z</time>
      </trkpt>
      <trkpt lat="46.76707" lon="6.47316">
        <ele>1283.8000488281</ele>
        <time>2019-10-19T14:24:24.000Z</time>
      </trkpt>
      <trkpt lat="46.76749" lon="6.47367">
        <ele>1286.5999755859</ele>
        <time>2019-10-19T14:24:54.000Z</time>
      </trkpt>
      <trkpt lat="46.76793" lon="6.47415">
        <ele>1292.5999755859</ele>
        <time>2019-10-19T14:25:22.000Z</time>
      </trkpt>
      <trkpt lat="46.76838" lon="6.47461">
        <ele>1300</ele>
        <time>2019-10-19T14:25:52.000Z</time>
      </trkpt>
      <trkpt lat="46.76841" lon="6.47464">
        <ele>1300.1999511719</ele>
        <time>2019-10-19T14:25:53.000Z</time>
      </trkpt>
      <trkpt lat="46.76885" lon="6.4751">
        <ele>1305.4000244141</ele>
        <time>2019-10-19T14:26:22.000Z</time>
      </trkpt>
      <trkpt lat="46.76932" lon="6.47551">
        <ele>1312.5999755859</ele>
        <time>2019-10-19T14:26:51.000Z</time>
      </trkpt>
      <trkpt lat="46.7698" lon="6.47591">
        <ele>1319.5999755859</ele>
        <time>2019-10-19T14:27:20.000Z</time>
      </trkpt>
      <trkpt lat="46.77023" lon="6.47643">
        <ele>1321</ele>
        <time>2019-10-19T14:27:48.000Z</time>
      </trkpt>
      <trkpt lat="46.7707" lon="6.47681">
        <ele>1327.4000244141</ele>
        <time>2019-10-19T14:28:16.000Z</time>
      </trkpt>
      <trkpt lat="46.77117" lon="6.47724">
        <ele>1327.1999511719</ele>
        <time>2019-10-19T14:28:46.000Z</time>
      </trkpt>
      <trkpt lat="46.77167" lon="6.47754">
        <ele>1331.4000244141</ele>
        <time>2019-10-19T14:29:16.000Z</time>
      </trkpt>
      <trkpt lat="46.77214" lon="6.47725">
        <ele>1345.8000488281</ele>
        <time>2019-10-19T14:29:45.000Z</time>
      </trkpt>
      <trkpt lat="46.77262" lon="6.4776">
        <ele>1345.5999755859</ele>
        <time>2019-10-19T14:30:15.000Z</time>
      </trkpt>
      <trkpt lat="46.77311" lon="6.47796">
        <ele>1347.1999511719</ele>
        <time>2019-10-19T14:30:45.000Z</time>
      </trkpt>
      <trkpt lat="46.77329" lon="6.47803">
        <ele>1348.4000244141</ele>
        <time>2019-10-19T14:30:54.000Z</time>
      </trkpt>
      <trkpt lat="46.77383" lon="6.47801">
        <ele>1356</ele>
        <time>2019-10-19T14:31:24.000Z</time>
      </trkpt>
      <trkpt lat="46.77436" lon="6.47797">
        <ele>1367.4000244141</ele>
        <time>2019-10-19T14:31:53.000Z</time>
      </trkpt>
      <trkpt lat="46.77488" lon="6.4781">
        <ele>1375.5999755859</ele>
        <time>2019-10-19T14:32:22.000Z</time>
      </trkpt>
      <trkpt lat="46.77448" lon="6.47764">
        <ele>1378.4000244141</ele>
        <time>2019-10-19T14:32:52.000Z</time>
      </trkpt>
      <trkpt lat="46.77409" lon="6.47709">
        <ele>1383.5999755859</ele>
        <time>2019-10-19T14:33:21.000Z</time>
      </trkpt>
      <trkpt lat="46.77359" lon="6.47682">
        <ele>1385</ele>
        <time>2019-10-19T14:33:50.000Z</time>
      </trkpt>
      <trkpt lat="46.77308" lon="6.47652">
        <ele>1385.5999755859</ele>
        <time>2019-10-19T14:34:20.000Z</time>
      </trkpt>
      <trkpt lat="46.77272" lon="6.47594">
        <ele>1394.8000488281</ele>
        <time>2019-10-19T14:34:50.000Z</time>
      </trkpt>
      <trkpt lat="46.77231" lon="6.47541">
        <ele>1402.1999511719</ele>
        <time>2019-10-19T14:35:20.000Z</time>
      </trkpt>
      <trkpt lat="46.77191" lon="6.47487">
        <ele>1410</ele>
        <time>2019-10-19T14:35:50.000Z</time>
      </trkpt>
      <trkpt lat="46.77152" lon="6.47431">
        <ele>1414.8000488281</ele>
        <time>2019-10-19T14:36:19.000Z</time>
      </trkpt>
      <trkpt lat="46.77119" lon="6.47367">
        <ele>1419.5999755859</ele>
        <time>2019-10-19T14:36:48.000Z</time>
      </trkpt>
      <trkpt lat="46.77087" lon="6.47301">
        <ele>1424.5999755859</ele>
        <time>2019-10-19T14:37:18.000Z</time>
      </trkpt>
      <trkpt lat="46.77064" lon="6.47228">
        <ele>1430.8000488281</ele>
        <time>2019-10-19T14:37:47.000Z</time>
      </trkpt>
      <trkpt lat="46.77045" lon="6.47154">
        <ele>1438.1999511719</ele>
        <time>2019-10-19T14:38:15.000Z</time>
      </trkpt>
      <trkpt lat="46.77022" lon="6.47083">
        <ele>1445</ele>
        <time>2019-10-19T14:38:44.000Z</time>
      </trkpt>
      <trkpt lat="46.77011" lon="6.47057">
        <ele>1447.1999511719</ele>
        <time>2019-10-19T14:38:55.000Z</time>
      </trkpt>
      <trkpt lat="46.76985" lon="6.46986">
        <ele>1456.1999511719</ele>
        <time>2019-10-19T14:39:24.000Z</time>
      </trkpt>
      <trkpt lat="46.76972" lon="6.46908">
        <ele>1461.5999755859</ele>
        <time>2019-10-19T14:39:56.000Z</time>
      </trkpt>
      <trkpt lat="46.7695" lon="6.46835">
        <ele>1463.5999755859</ele>
        <time>2019-10-19T14:40:26.000Z</time>
      </trkpt>
      <trkpt lat="46.76924" lon="6.46763">
        <ele>1469.8000488281</ele>
        <time>2019-10-19T14:40:57.000Z</time>
      </trkpt>
      <trkpt lat="46.76922" lon="6.46756">
        <ele>1470.8000488281</ele>
        <time>2019-10-19T14:41:00.000Z</time>
      </trkpt>
      <trkpt lat="46.76914" lon="6.46677">
        <ele>1479.1999511719</ele>
        <time>2019-10-19T14:41:31.000Z</time>
      </trkpt>
      <trkpt lat="46.76918" lon="6.46597">
        <ele>1491</ele>
        <time>2019-10-19T14:42:04.000Z</time>
      </trkpt>
      <trkpt lat="46.76888" lon="6.46554">
        <ele>1488</ele>
        <time>2019-10-19T14:42:29.000Z</time>
      </trkpt>
      <trkpt lat="46.76859" lon="6.46516">
        <ele>1487.4000244141</ele>
        <time>2019-10-19T14:43:04.000Z</time>
      </trkpt>
      <trkpt lat="46.76859" lon="6.46513">
        <ele>1487.8000488281</ele>
        <time>2019-10-19T14:43:15.000Z</time>
      </trkpt>
      <trkpt lat="46.76857" lon="6.46513">
        <ele>1487.5999755859</ele>
        <time>2019-10-19T14:43:17.000Z</time>
      </trkpt>
      <trkpt lat="46.76857" lon="6.46513">
        <ele>1487.4000244141</ele>
        <time>2019-10-19T14:44:43.000Z</time>
      </trkpt>
      <trkpt lat="46.76854" lon="6.46509">
        <ele>1487.1999511719</ele>
        <time>2019-10-19T14:44:47.000Z</time>
      </trkpt>
      <trkpt lat="46.76852" lon="6.46498">
        <ele>1488.5999755859</ele>
        <time>2019-10-19T14:44:54.000Z</time>
      </trkpt>
      <trkpt lat="46.76851" lon="6.46495">
        <ele>1488.5999755859</ele>
        <time>2019-10-19T14:44:56.000Z</time>
      </trkpt>
      <trkpt lat="46.76824" lon="6.46427">
        <ele>1493.4000244141</ele>
        <time>2019-10-19T14:45:39.000Z</time>
      </trkpt>
      <trkpt lat="46.76812" lon="6.46386">
        <ele>1498.5999755859</ele>
        <time>2019-10-19T14:46:07.000Z</time>
      </trkpt>
      <trkpt lat="46.76808" lon="6.46364">
        <ele>1503.1999511719</ele>
        <time>2019-10-19T14:46:21.000Z</time>
      </trkpt>
      <trkpt lat="46.76807" lon="6.4636">
        <ele>1504</ele>
        <time>2019-10-19T14:46:24.000Z</time>
      </trkpt>
      <trkpt lat="46.76809" lon="6.46337">
        <ele>1509.5999755859</ele>
        <time>2019-10-19T14:46:40.000Z</time>
      </trkpt>
      <trkpt lat="46.76812" lon="6.46336">
        <ele>1510.5999755859</ele>
        <time>2019-10-19T14:46:44.000Z</time>
      </trkpt>
      <trkpt lat="46.76862" lon="6.46368">
        <ele>1514.4000244141</ele>
        <time>2019-10-19T14:47:33.000Z</time>
      </trkpt>
      <trkpt lat="46.76891" lon="6.46395">
        <ele>1515</ele>
        <time>2019-10-19T14:48:03.000Z</time>
      </trkpt>
      <trkpt lat="46.76895" lon="6.46401">
        <ele>1514.5999755859</ele>
        <time>2019-10-19T14:48:08.000Z</time>
      </trkpt>
      <trkpt lat="46.76897" lon="6.46403">
        <ele>1514.5999755859</ele>
        <time>2019-10-19T14:48:10.000Z</time>
      </trkpt>
      <trkpt lat="46.7692" lon="6.4643">
        <ele>1516.5999755859</ele>
        <time>2019-10-19T14:48:36.000Z</time>
      </trkpt>
      <trkpt lat="46.76929" lon="6.46441">
        <ele>1517.5999755859</ele>
        <time>2019-10-19T14:48:47.000Z</time>
      </trkpt>
      <trkpt lat="46.76937" lon="6.46446">
        <ele>1519</ele>
        <time>2019-10-19T14:48:56.000Z</time>
      </trkpt>
      <trkpt lat="46.76949" lon="6.46473">
        <ele>1518.1999511719</ele>
        <time>2019-10-19T14:49:22.000Z</time>
      </trkpt>
      <trkpt lat="46.76959" lon="6.46483">
        <ele>1519.5999755859</ele>
        <time>2019-10-19T14:49:34.000Z</time>
      </trkpt>
      <trkpt lat="46.76969" lon="6.46494">
        <ele>1521.4000244141</ele>
        <time>2019-10-19T14:49:47.000Z</time>
      </trkpt>
      <trkpt lat="46.76974" lon="6.46496">
        <ele>1522.4000244141</ele>
        <time>2019-10-19T14:49:53.000Z</time>
      </trkpt>
      <trkpt lat="46.7698" lon="6.46498">
        <ele>1524</ele>
        <time>2019-10-19T14:49:59.000Z</time>
      </trkpt>
      <trkpt lat="46.76995" lon="6.46508">
        <ele>1527.4000244141</ele>
        <time>2019-10-19T14:50:17.000Z</time>
      </trkpt>
      <trkpt lat="46.77012" lon="6.46516">
        <ele>1530.8000488281</ele>
        <time>2019-10-19T14:50:34.000Z</time>
      </trkpt>
      <trkpt lat="46.77022" lon="6.46523">
        <ele>1532.5999755859</ele>
        <time>2019-10-19T14:51:02.000Z</time>
      </trkpt>
      <trkpt lat="46.77066" lon="6.46562">
        <ele>1539.1999511719</ele>
        <time>2019-10-19T14:51:45.000Z</time>
      </trkpt>
      <trkpt lat="46.77082" lon="6.46565">
        <ele>1543</ele>
        <time>2019-10-19T14:52:00.000Z</time>
      </trkpt>
      <trkpt lat="46.77084" lon="6.46565">
        <ele>1543.5999755859</ele>
        <time>2019-10-19T14:52:02.000Z</time>
      </trkpt>
      <trkpt lat="46.77107" lon="6.46557">
        <ele>1550.5999755859</ele>
        <time>2019-10-19T14:52:25.000Z</time>
      </trkpt>
      <trkpt lat="46.77109" lon="6.46556">
        <ele>1551.1999511719</ele>
        <time>2019-10-19T14:52:27.000Z</time>
      </trkpt>
      <trkpt lat="46.77111" lon="6.46556">
        <ele>1551.8000488281</ele>
        <time>2019-10-19T14:52:29.000Z</time>
      </trkpt>
      <trkpt lat="46.7712" lon="6.46565">
        <ele>1553.5999755859</ele>
        <time>2019-10-19T14:52:40.000Z</time>
      </trkpt>
      <trkpt lat="46.77123" lon="6.4656">
        <ele>1554.5999755859</ele>
        <time>2019-10-19T14:52:44.000Z</time>
      </trkpt>
      <trkpt lat="46.7713" lon="6.46543">
        <ele>1558.1999511719</ele>
        <time>2019-10-19T14:52:57.000Z</time>
      </trkpt>
      <trkpt lat="46.77132" lon="6.46544">
        <ele>1558.8000488281</ele>
        <time>2019-10-19T14:52:59.000Z</time>
      </trkpt>
      <trkpt lat="46.77139" lon="6.46546">
        <ele>1560</ele>
        <time>2019-10-19T14:53:06.000Z</time>
      </trkpt>
      <trkpt lat="46.77146" lon="6.46532">
        <ele>1561</ele>
        <time>2019-10-19T14:53:17.000Z</time>
      </trkpt>
      <trkpt lat="46.77149" lon="6.46537">
        <ele>1561.5999755859</ele>
        <time>2019-10-19T14:53:19.000Z</time>
      </trkpt>
      <trkpt lat="46.7716" lon="6.46556">
        <ele>1563</ele>
        <time>2019-10-19T14:53:37.000Z</time>
      </trkpt>
      <trkpt lat="46.7717" lon="6.46542">
        <ele>1563.1999511719</ele>
        <time>2019-10-19T14:53:49.000Z</time>
      </trkpt>
      <trkpt lat="46.77175" lon="6.46543">
        <ele>1563.4000244141</ele>
        <time>2019-10-19T14:53:54.000Z</time>
      </trkpt>
      <trkpt lat="46.77182" lon="6.46542">
        <ele>1563.8000488281</ele>
        <time>2019-10-19T14:54:01.000Z</time>
      </trkpt>
      <trkpt lat="46.77194" lon="6.46553">
        <ele>1564.1999511719</ele>
        <time>2019-10-19T14:54:15.000Z</time>
      </trkpt>
      <trkpt lat="46.77198" lon="6.46554">
        <ele>1564.4000244141</ele>
        <time>2019-10-19T14:54:18.000Z</time>
      </trkpt>
      <trkpt lat="46.77209" lon="6.46568">
        <ele>1565</ele>
        <time>2019-10-19T14:54:31.000Z</time>
      </trkpt>
      <trkpt lat="46.77253" lon="6.46606">
        <ele>1563.1999511719</ele>
        <time>2019-10-19T14:55:16.000Z</time>
      </trkpt>
      <trkpt lat="46.77254" lon="6.4661">
        <ele>1563.1999511719</ele>
        <time>2019-10-19T14:55:18.000Z</time>
      </trkpt>
      <trkpt lat="46.77242" lon="6.46631">
        <ele>1568.4000244141</ele>
        <time>2019-10-19T14:55:36.000Z</time>
      </trkpt>
      <trkpt lat="46.77231" lon="6.4663">
        <ele>1569.5999755859</ele>
        <time>2019-10-19T14:58:47.000Z</time>
      </trkpt>
      <trkpt lat="46.77228" lon="6.4663">
        <ele>1569.4000244141</ele>
        <time>2019-10-19T14:58:49.000Z</time>
      </trkpt>
      <trkpt lat="46.77191" lon="6.46575">
        <ele>1564.8000488281</ele>
        <time>2019-10-19T14:59:09.000Z</time>
      </trkpt>
      <trkpt lat="46.77189" lon="6.46571">
        <ele>1564.5999755859</ele>
        <time>2019-10-19T14:59:10.000Z</time>
      </trkpt>
      <trkpt lat="46.77174" lon="6.46553">
        <ele>1563.5999755859</ele>
        <time>2019-10-19T14:59:15.000Z</time>
      </trkpt>
      <trkpt lat="46.77166" lon="6.46549">
        <ele>1563.1999511719</ele>
        <time>2019-10-19T14:59:17.000Z</time>
      </trkpt>
      <trkpt lat="46.77107" lon="6.46555">
        <ele>1550.8000488281</ele>
        <time>2019-10-19T14:59:28.000Z</time>
      </trkpt>
      <trkpt lat="46.77055" lon="6.46558">
        <ele>1536.5999755859</ele>
        <time>2019-10-19T14:59:36.000Z</time>
      </trkpt>
      <trkpt lat="46.77044" lon="6.4655">
        <ele>1535</ele>
        <time>2019-10-19T14:59:38.000Z</time>
      </trkpt>
      <trkpt lat="46.76997" lon="6.46508">
        <ele>1527.8000488281</ele>
        <time>2019-10-19T14:59:50.000Z</time>
      </trkpt>
      <trkpt lat="46.76947" lon="6.46469">
        <ele>1518.1999511719</ele>
        <time>2019-10-19T15:00:01.000Z</time>
      </trkpt>
      <trkpt lat="46.76934" lon="6.46448">
        <ele>1517.8000488281</ele>
        <time>2019-10-19T15:00:05.000Z</time>
      </trkpt>
      <trkpt lat="46.7689" lon="6.46393">
        <ele>1515</ele>
        <time>2019-10-19T15:00:16.000Z</time>
      </trkpt>
      <trkpt lat="46.76882" lon="6.46384">
        <ele>1515</ele>
        <time>2019-10-19T15:00:17.000Z</time>
      </trkpt>
      <trkpt lat="46.76833" lon="6.46348">
        <ele>1512.1999511719</ele>
        <time>2019-10-19T15:00:26.000Z</time>
      </trkpt>
      <trkpt lat="46.76809" lon="6.46338">
        <ele>1509.4000244141</ele>
        <time>2019-10-19T15:00:33.000Z</time>
      </trkpt>
      <trkpt lat="46.76805" lon="6.46343">
        <ele>1507.4000244141</ele>
        <time>2019-10-19T15:00:35.000Z</time>
      </trkpt>
      <trkpt lat="46.76805" lon="6.46353">
        <ele>1505</ele>
        <time>2019-10-19T15:00:37.000Z</time>
      </trkpt>
      <trkpt lat="46.76811" lon="6.46386">
        <ele>1498.4000244141</ele>
        <time>2019-10-19T15:00:41.000Z</time>
      </trkpt>
      <trkpt lat="46.76837" lon="6.46462">
        <ele>1490.5999755859</ele>
        <time>2019-10-19T15:00:50.000Z</time>
      </trkpt>
      <trkpt lat="46.76851" lon="6.46488">
        <ele>1489.5999755859</ele>
        <time>2019-10-19T15:00:54.000Z</time>
      </trkpt>
      <trkpt lat="46.76859" lon="6.46517">
        <ele>1487.1999511719</ele>
        <time>2019-10-19T15:00:59.000Z</time>
      </trkpt>
      <trkpt lat="46.76861" lon="6.46522">
        <ele>1487</ele>
        <time>2019-10-19T15:01:00.000Z</time>
      </trkpt>
      <trkpt lat="46.76864" lon="6.46527">
        <ele>1487</ele>
        <time>2019-10-19T15:01:01.000Z</time>
      </trkpt>
      <trkpt lat="46.7688" lon="6.46543">
        <ele>1488</ele>
        <time>2019-10-19T15:01:05.000Z</time>
      </trkpt>
      <trkpt lat="46.76888" lon="6.46551">
        <ele>1488.4000244141</ele>
        <time>2019-10-19T15:01:07.000Z</time>
      </trkpt>
      <trkpt lat="46.76914" lon="6.46581">
        <ele>1491.5999755859</ele>
        <time>2019-10-19T15:01:16.000Z</time>
      </trkpt>
      <trkpt lat="46.76919" lon="6.46595">
        <ele>1491.4000244141</ele>
        <time>2019-10-19T15:01:19.000Z</time>
      </trkpt>
      <trkpt lat="46.76902" lon="6.46627">
        <ele>1481.4000244141</ele>
        <time>2019-10-19T15:01:26.000Z</time>
      </trkpt>
      <trkpt lat="46.76892" lon="6.46659">
        <ele>1474.5999755859</ele>
        <time>2019-10-19T15:01:31.000Z</time>
      </trkpt>
      <trkpt lat="46.76888" lon="6.46686">
        <ele>1471.1999511719</ele>
        <time>2019-10-19T15:01:34.000Z</time>
      </trkpt>
      <trkpt lat="46.76879" lon="6.46733">
        <ele>1462.5999755859</ele>
        <time>2019-10-19T15:01:40.000Z</time>
      </trkpt>
      <trkpt lat="46.76886" lon="6.46814">
        <ele>1448</ele>
        <time>2019-10-19T15:01:49.000Z</time>
      </trkpt>
      <trkpt lat="46.76901" lon="6.46898">
        <ele>1438.4000244141</ele>
        <time>2019-10-19T15:01:59.000Z</time>
      </trkpt>
      <trkpt lat="46.76913" lon="6.46933">
        <ele>1437.1999511719</ele>
        <time>2019-10-19T15:02:06.000Z</time>
      </trkpt>
      <trkpt lat="46.76908" lon="6.46937">
        <ele>1434.4000244141</ele>
        <time>2019-10-19T15:02:13.000Z</time>
      </trkpt>
      <trkpt lat="46.76883" lon="6.47006">
        <ele>1417.8000488281</ele>
        <time>2019-10-19T15:02:30.000Z</time>
      </trkpt>
      <trkpt lat="46.76868" lon="6.47081">
        <ele>1403.5999755859</ele>
        <time>2019-10-19T15:02:44.000Z</time>
      </trkpt>
      <trkpt lat="46.7687" lon="6.47092">
        <ele>1402.1999511719</ele>
        <time>2019-10-19T15:02:46.000Z</time>
      </trkpt>
      <trkpt lat="46.76877" lon="6.47141">
        <ele>1395</ele>
        <time>2019-10-19T15:02:55.000Z</time>
      </trkpt>
      <trkpt lat="46.76881" lon="6.47167">
        <ele>1391.4000244141</ele>
        <time>2019-10-19T15:03:00.000Z</time>
      </trkpt>
      <trkpt lat="46.76887" lon="6.47178">
        <ele>1391.1999511719</ele>
        <time>2019-10-19T15:03:02.000Z</time>
      </trkpt>
      <trkpt lat="46.76904" lon="6.47204">
        <ele>1390.8000488281</ele>
        <time>2019-10-19T15:03:05.000Z</time>
      </trkpt>
      <trkpt lat="46.76885" lon="6.47225">
        <ele>1382</ele>
        <time>2019-10-19T15:04:24.000Z</time>
      </trkpt>
      <trkpt lat="46.76881" lon="6.47225">
        <ele>1380.8000488281</ele>
        <time>2019-10-19T15:04:27.000Z</time>
      </trkpt>
      <trkpt lat="46.76827" lon="6.47213">
        <ele>1367.1999511719</ele>
        <time>2019-10-19T15:04:52.000Z</time>
      </trkpt>
      <trkpt lat="46.76774" lon="6.47192">
        <ele>1351.5999755859</ele>
        <time>2019-10-19T15:05:21.000Z</time>
      </trkpt>
      <trkpt lat="46.76729" lon="6.47145">
        <ele>1344.5999755859</ele>
        <time>2019-10-19T15:05:45.000Z</time>
      </trkpt>
      <trkpt lat="46.76725" lon="6.47141">
        <ele>1343.1999511719</ele>
        <time>2019-10-19T15:05:49.000Z</time>
      </trkpt>
      <trkpt lat="46.7672" lon="6.47136">
        <ele>1342.1999511719</ele>
        <time>2019-10-19T15:05:56.000Z</time>
      </trkpt>
      <trkpt lat="46.76719" lon="6.47134">
        <ele>1342.1999511719</ele>
        <time>2019-10-19T15:05:58.000Z</time>
      </trkpt>
      <trkpt lat="46.76672" lon="6.4709">
        <ele>1329.4000244141</ele>
        <time>2019-10-19T15:06:26.000Z</time>
      </trkpt>
      <trkpt lat="46.76624" lon="6.47051">
        <ele>1314.5999755859</ele>
        <time>2019-10-19T15:06:47.000Z</time>
      </trkpt>
      <trkpt lat="46.76603" lon="6.47041">
        <ele>1306.4000244141</ele>
        <time>2019-10-19T15:06:54.000Z</time>
      </trkpt>
      <trkpt lat="46.76565" lon="6.47008">
        <ele>1294.8000488281</ele>
        <time>2019-10-19T15:07:21.000Z</time>
      </trkpt>
      <trkpt lat="46.76518" lon="6.46968">
        <ele>1282.1999511719</ele>
        <time>2019-10-19T15:07:41.000Z</time>
      </trkpt>
      <trkpt lat="46.76486" lon="6.4696">
        <ele>1268.5999755859</ele>
        <time>2019-10-19T15:07:53.000Z</time>
      </trkpt>
      <trkpt lat="46.76485" lon="6.46963">
        <ele>1267.5999755859</ele>
        <time>2019-10-19T15:07:55.000Z</time>
      </trkpt>
      <trkpt lat="46.76509" lon="6.47014">
        <ele>1266.1999511719</ele>
        <time>2019-10-19T15:08:04.000Z</time>
      </trkpt>
      <trkpt lat="46.76528" lon="6.47091">
        <ele>1257.1999511719</ele>
        <time>2019-10-19T15:08:12.000Z</time>
      </trkpt>
      <trkpt lat="46.76531" lon="6.47099">
        <ele>1256.1999511719</ele>
        <time>2019-10-19T15:08:13.000Z</time>
      </trkpt>
      <trkpt lat="46.76536" lon="6.47113">
        <ele>1254.8000488281</ele>
        <time>2019-10-19T15:08:15.000Z</time>
      </trkpt>
      <trkpt lat="46.7655" lon="6.4719">
        <ele>1244.4000244141</ele>
        <time>2019-10-19T15:08:37.000Z</time>
      </trkpt>
      <trkpt lat="46.76562" lon="6.47267">
        <ele>1232.8000488281</ele>
        <time>2019-10-19T15:08:59.000Z</time>
      </trkpt>
      <trkpt lat="46.76577" lon="6.47341">
        <ele>1221.8000488281</ele>
        <time>2019-10-19T15:09:18.000Z</time>
      </trkpt>
      <trkpt lat="46.76583" lon="6.47418">
        <ele>1204.8000488281</ele>
        <time>2019-10-19T15:09:37.000Z</time>
      </trkpt>
      <trkpt lat="46.7657" lon="6.47499">
        <ele>1191.1999511719</ele>
        <time>2019-10-19T15:09:54.000Z</time>
      </trkpt>
      <trkpt lat="46.76584" lon="6.47576">
        <ele>1178.8000488281</ele>
        <time>2019-10-19T15:10:09.000Z</time>
      </trkpt>
      <trkpt lat="46.76608" lon="6.47648">
        <ele>1172</ele>
        <time>2019-10-19T15:10:26.000Z</time>
      </trkpt>
      <trkpt lat="46.76623" lon="6.47692">
        <ele>1167.1999511719</ele>
        <time>2019-10-19T15:10:36.000Z</time>
      </trkpt>
      <trkpt lat="46.76624" lon="6.47717">
        <ele>1162.5999755859</ele>
        <time>2019-10-19T15:10:41.000Z</time>
      </trkpt>
      <trkpt lat="46.76604" lon="6.47755">
        <ele>1151.1999511719</ele>
        <time>2019-10-19T15:10:50.000Z</time>
      </trkpt>
      <trkpt lat="46.7659" lon="6.47796">
        <ele>1142.1999511719</ele>
        <time>2019-10-19T15:10:59.000Z</time>
      </trkpt>
      <trkpt lat="46.76602" lon="6.47823">
        <ele>1140</ele>
        <time>2019-10-19T15:11:31.000Z</time>
      </trkpt>
      <trkpt lat="46.76589" lon="6.47857">
        <ele>1131</ele>
        <time>2019-10-19T15:11:41.000Z</time>
      </trkpt>
      <trkpt lat="46.76579" lon="6.47869">
        <ele>1127</ele>
        <time>2019-10-19T15:11:45.000Z</time>
      </trkpt>
      <trkpt lat="46.76563" lon="6.47904">
        <ele>1118.8000488281</ele>
        <time>2019-10-19T15:11:50.000Z</time>
      </trkpt>
      <trkpt lat="46.76556" lon="6.47918">
        <ele>1115.4000244141</ele>
        <time>2019-10-19T15:11:54.000Z</time>
      </trkpt>
      <trkpt lat="46.76549" lon="6.47935">
        <ele>1111.8000488281</ele>
        <time>2019-10-19T15:11:57.000Z</time>
      </trkpt>
      <trkpt lat="46.76531" lon="6.47965">
        <ele>1106.5999755859</ele>
        <time>2019-10-19T15:12:03.000Z</time>
      </trkpt>
      <trkpt lat="46.76517" lon="6.4804">
        <ele>1093.5999755859</ele>
        <time>2019-10-19T15:12:28.000Z</time>
      </trkpt>
      <trkpt lat="46.76514" lon="6.48048">
        <ele>1092.1999511719</ele>
        <time>2019-10-19T15:13:34.000Z</time>
      </trkpt>
      <trkpt lat="46.76509" lon="6.48095">
        <ele>1082.4000244141</ele>
        <time>2019-10-19T15:14:12.000Z</time>
      </trkpt>
      <trkpt lat="46.76529" lon="6.48124">
        <ele>1075.4000244141</ele>
        <time>2019-10-19T15:14:45.000Z</time>
      </trkpt>
      <trkpt lat="46.76578" lon="6.48158">
        <ele>1069.4000244141</ele>
        <time>2019-10-19T15:15:16.000Z</time>
      </trkpt>
      <trkpt lat="46.76628" lon="6.4819">
        <ele>1059.4000244141</ele>
        <time>2019-10-19T15:15:44.000Z</time>
      </trkpt>
      <trkpt lat="46.76674" lon="6.48232">
        <ele>1051.1999511719</ele>
        <time>2019-10-19T15:16:15.000Z</time>
      </trkpt>
      <trkpt lat="46.76686" lon="6.48245">
        <ele>1048.1999511719</ele>
        <time>2019-10-19T15:16:24.000Z</time>
      </trkpt>
      <trkpt lat="46.76704" lon="6.48249">
        <ele>1048.8000488281</ele>
        <time>2019-10-19T15:16:35.000Z</time>
      </trkpt>
      <trkpt lat="46.76741" lon="6.48304">
        <ele>1034.8000488281</ele>
        <time>2019-10-19T15:17:09.000Z</time>
      </trkpt>
      <trkpt lat="46.76745" lon="6.48322">
        <ele>1030</ele>
        <time>2019-10-19T15:18:00.000Z</time>
      </trkpt>
      <trkpt lat="46.76742" lon="6.4833">
        <ele>1026.1999511719</ele>
        <time>2019-10-19T15:18:10.000Z</time>
      </trkpt>
      <trkpt lat="46.76766" lon="6.48401">
        <ele>1006.4000244141</ele>
        <time>2019-10-19T15:18:43.000Z</time>
      </trkpt>
      <trkpt lat="46.76784" lon="6.48477">
        <ele>993</ele>
        <time>2019-10-19T15:19:09.000Z</time>
      </trkpt>
      <trkpt lat="46.7681" lon="6.48539">
        <ele>984.79998779297</ele>
        <time>2019-10-19T15:19:34.000Z</time>
      </trkpt>
      <trkpt lat="46.76821" lon="6.48601">
        <ele>969.59997558594</ele>
        <time>2019-10-19T15:20:08.000Z</time>
      </trkpt>
      <trkpt lat="46.76826" lon="6.4861">
        <ele>968.20001220703</ele>
        <time>2019-10-19T15:20:12.000Z</time>
      </trkpt>
      <trkpt lat="46.76848" lon="6.48648">
        <ele>961.59997558594</ele>
        <time>2019-10-19T15:20:30.000Z</time>
      </trkpt>
      <trkpt lat="46.76845" lon="6.4865">
        <ele>960.20001220703</ele>
        <time>2019-10-19T15:20:33.000Z</time>
      </trkpt>
      <trkpt lat="46.76788" lon="6.4866">
        <ele>942.20001220703</ele>
        <time>2019-10-19T15:20:54.000Z</time>
      </trkpt>
      <trkpt lat="46.76747" lon="6.48677">
        <ele>925.79998779297</ele>
        <time>2019-10-19T15:21:12.000Z</time>
      </trkpt>
      <trkpt lat="46.76769" lon="6.48739">
        <ele>914.20001220703</ele>
        <time>2019-10-19T15:21:33.000Z</time>
      </trkpt>
      <trkpt lat="46.76796" lon="6.48809">
        <ele>898</ele>
        <time>2019-10-19T15:21:56.000Z</time>
      </trkpt>
      <trkpt lat="46.76805" lon="6.48837">
        <ele>892.20001220703</ele>
        <time>2019-10-19T15:22:04.000Z</time>
      </trkpt>
      <trkpt lat="46.76848" lon="6.48891">
        <ele>887.20001220703</ele>
        <time>2019-10-19T15:22:25.000Z</time>
      </trkpt>
      <trkpt lat="46.76873" lon="6.48966">
        <ele>873.59997558594</ele>
        <time>2019-10-19T15:22:40.000Z</time>
      </trkpt>
      <trkpt lat="46.76883" lon="6.49044">
        <ele>854.79998779297</ele>
        <time>2019-10-19T15:22:53.000Z</time>
      </trkpt>
      <trkpt lat="46.76911" lon="6.49113">
        <ele>840.20001220703</ele>
        <time>2019-10-19T15:23:07.000Z</time>
      </trkpt>
      <trkpt lat="46.76946" lon="6.49172">
        <ele>828</ele>
        <time>2019-10-19T15:23:22.000Z</time>
      </trkpt>
      <trkpt lat="46.76958" lon="6.49184">
        <ele>826.59997558594</ele>
        <time>2019-10-19T15:23:27.000Z</time>
      </trkpt>
      <trkpt lat="46.76958" lon="6.49189">
        <ele>825.79998779297</ele>
        <time>2019-10-19T15:23:29.000Z</time>
      </trkpt>
      <trkpt lat="46.7696" lon="6.49196">
        <ele>824.59997558594</ele>
        <time>2019-10-19T15:23:33.000Z</time>
      </trkpt>
      <trkpt lat="46.76979" lon="6.49217">
        <ele>822.20001220703</ele>
        <time>2019-10-19T15:23:39.000Z</time>
      </trkpt>
      <trkpt lat="46.7702" lon="6.49276">
        <ele>814</ele>
        <time>2019-10-19T15:23:50.000Z</time>
      </trkpt>
      <trkpt lat="46.77054" lon="6.49335">
        <ele>806.79998779297</ele>
        <time>2019-10-19T15:24:02.000Z</time>
      </trkpt>
      <trkpt lat="46.77058" lon="6.49348">
        <ele>805.59997558594</ele>
        <time>2019-10-19T15:24:04.000Z</time>
      </trkpt>
      <trkpt lat="46.77091" lon="6.49397">
        <ele>800.59997558594</ele>
        <time>2019-10-19T15:24:16.000Z</time>
      </trkpt>
      <trkpt lat="46.77135" lon="6.49427">
        <ele>793.79998779297</ele>
        <time>2019-10-19T15:24:39.000Z</time>
      </trkpt>
      <trkpt lat="46.7716" lon="6.49498">
        <ele>780.20001220703</ele>
        <time>2019-10-19T15:24:58.000Z</time>
      </trkpt>
      <trkpt lat="46.77165" lon="6.4954">
        <ele>772.59997558594</ele>
        <time>2019-10-19T15:25:18.000Z</time>
      </trkpt>
      <trkpt lat="46.7717" lon="6.49566">
        <ele>767.79998779297</ele>
        <time>2019-10-19T15:25:28.000Z</time>
      </trkpt>
      <trkpt lat="46.77163" lon="6.49609">
        <ele>757.59997558594</ele>
        <time>2019-10-19T15:25:51.000Z</time>
      </trkpt>
      <trkpt lat="46.77148" lon="6.49666">
        <ele>744.79998779297</ele>
        <time>2019-10-19T15:26:14.000Z</time>
      </trkpt>
      <trkpt lat="46.77141" lon="6.49678">
        <ele>741.59997558594</ele>
        <time>2019-10-19T15:26:20.000Z</time>
      </trkpt>
      <trkpt lat="46.77131" lon="6.49721">
        <ele>730.59997558594</ele>
        <time>2019-10-19T15:26:35.000Z</time>
      </trkpt>
      <trkpt lat="46.77121" lon="6.49767">
        <ele>723.40002441406</ele>
        <time>2019-10-19T15:26:48.000Z</time>
      </trkpt>
      <trkpt lat="46.77107" lon="6.49781">
        <ele>721.20001220703</ele>
        <time>2019-10-19T15:27:04.000Z</time>
      </trkpt>
      <trkpt lat="46.77054" lon="6.498">
        <ele>715</ele>
        <time>2019-10-19T15:27:25.000Z</time>
      </trkpt>
      <trkpt lat="46.77033" lon="6.4981">
        <ele>711</ele>
        <time>2019-10-19T15:27:36.000Z</time>
      </trkpt>
      <trkpt lat="46.77013" lon="6.49834">
        <ele>706.20001220703</ele>
        <time>2019-10-19T15:27:44.000Z</time>
      </trkpt>
      <trkpt lat="46.76993" lon="6.49835">
        <ele>704.40002441406</ele>
        <time>2019-10-19T15:27:48.000Z</time>
      </trkpt>
      <trkpt lat="46.76954" lon="6.49819">
        <ele>704.40002441406</ele>
        <time>2019-10-19T15:28:13.000Z</time>
      </trkpt>
    </trkseg>
  </trk>
</gpx>